Time;durP1;ratioP1;P1;durP2;ratioP2;P2;SDS_P1;SDS_P2;PMS_P1;PMS_P2;Temp;Humidity;BMP_temperature;BMP_pressure;BME280_temperature;BME280_humidity;BME280_pressure;Samples;Min_cycle;Max_cycle;Signal;HPM_P1;HPM_P2
2023/11/21 00:01:04;;;;;;;12.67;9.27;;;;;;;9.97;88.87;99994.53;5077998;28;20284;-83
2023/11/21 00:03:30;;;;;;;9.80;8.70;;;;;;;9.98;88.46;99999.72;5072216;28;20266;-83
2023/11/21 00:05:57;;;;;;;14.00;8.87;;;;;;;10.02;89.39;99997.91;5071164;28;20266;-83
2023/11/21 00:08:23;;;;;;;11.47;10.07;;;;;;;9.97;89.78;99986.72;5072544;28;20212;-83
2023/11/21 00:10:51;;;;;;;21.40;8.50;;;;;;;9.97;89.93;99981.50;5071777;28;20270;-83
2023/11/21 00:13:17;;;;;;;11.27;9.10;;;;;;;9.97;89.93;99989.31;5071736;28;20207;-83
2023/11/21 00:15:45;;;;;;;17.83;10.13;;;;;;;10.01;90.39;99967.47;5064179;28;20293;-83
2023/11/21 00:18:12;;;;;;;13.20;9.47;;;;;;;10.03;89.83;99974.41;5073832;28;20254;-83
2023/11/21 00:20:38;;;;;;;18.00;10.40;;;;;;;10.06;90.66;99974.31;5072177;28;20232;-84
2023/11/21 00:23:04;;;;;;;11.40;9.57;;;;;;;10.16;91.09;99951.47;5073544;28;20265;-83
2023/11/21 00:25:31;;;;;;;17.80;10.83;;;;;;;10.21;90.99;99959.16;5074154;28;20202;-84
2023/11/21 00:27:57;;;;;;;16.70;9.90;;;;;;;10.24;90.53;99965.16;5068427;28;20216;-83
2023/11/21 00:30:24;;;;;;;13.70;9.50;;;;;;;10.25;89.94;99968.66;5079282;28;20261;-83
2023/11/21 00:32:52;;;;;;;12.50;9.23;;;;;;;10.28;89.94;99976.38;5072740;28;20212;-83
2023/11/21 00:35:18;;;;;;;16.07;11.53;;;;;;;10.16;90.15;99982.75;5073255;28;20225;-83
2023/11/21 00:37:45;;;;;;;17.43;10.50;;;;;;;10.07;90.71;99978.66;5072507;28;20197;-83
2023/11/21 00:40:14;;;;;;;18.47;12.47;;;;;;;9.83;90.85;99974.88;5076802;28;20232;-83
2023/11/21 00:42:41;;;;;;;21.13;11.73;;;;;;;9.78;92.63;99944.59;5076396;28;20270;-83
2023/11/21 00:45:09;;;;;;;13.13;10.10;;;;;;;10.02;92.67;99920.53;5075787;28;20193;-83
2023/11/21 00:47:35;;;;;;;16.50;10.83;;;;;;;10.18;92.73;99920.13;5076607;28;20721;-83
2023/11/21 00:50:05;;;;;;;17.43;11.67;;;;;;;9.79;91.58;99941.97;5075352;28;20243;-83
2023/11/21 00:52:32;;;;;;;13.87;11.20;;;;;;;9.99;92.34;99932.78;5075508;28;20209;-83
2023/11/21 00:54:59;;;;;;;18.80;12.83;;;;;;;9.84;92.77;99926.19;5075385;28;20231;-83
2023/11/21 00:57:26;;;;;;;14.07;12.10;;;;;;;9.77;93.21;99914.19;5075695;28;20209;-83
2023/11/21 00:59:52;;;;;;;14.80;12.20;;;;;;;9.94;92.74;99906.81;5078817;28;20276;-83
2023/11/21 01:02:19;;;;;;;11.27;10.00;;;;;;;10.00;92.08;99935.34;5079336;28;20216;-83
2023/11/21 01:04:47;;;;;;;13.90;12.13;;;;;;;9.87;91.93;99942.63;5075994;28;20220;-84
2023/11/21 01:07:15;;;;;;;13.97;11.83;;;;;;;9.98;92.58;99941.50;5075745;28;20219;-83
2023/11/21 01:09:41;;;;;;;18.10;12.47;;;;;;;10.05;92.27;99932.63;5075249;28;20233;-83
2023/11/21 01:12:08;;;;;;;13.07;10.60;;;;;;;10.12;92.23;99948.06;5074858;28;20218;-83
2023/11/21 01:14:35;;;;;;;25.03;12.40;;;;;;;10.09;91.89;99955.16;5076565;28;20225;-83
2023/11/21 01:17:01;;;;;;;14.93;10.57;;;;;;;10.22;92.15;99953.91;5075785;28;20284;-83
2023/11/21 01:19:28;;;;;;;18.40;12.00;;;;;;;9.88;92.01;99973.00;5074727;28;20215;-83
2023/11/21 01:21:55;;;;;;;19.57;12.40;;;;;;;9.67;93.73;99950.91;5073978;28;20204;-83
2023/11/21 01:24:22;;;;;;;22.20;12.63;;;;;;;9.75;94.47;99927.25;5076005;28;20204;-83
2023/11/21 01:26:49;;;;;;;17.60;11.13;;;;;;;10.05;94.53;99917.84;5067216;28;20300;-83
2023/11/21 01:29:15;;;;;;;14.83;11.47;;;;;;;10.00;93.14;99937.09;5075859;28;20200;-83
2023/11/21 01:31:42;;;;;;;15.13;12.23;;;;;;;9.79;93.10;99941.97;5082208;28;20256;-83
2023/11/21 01:34:08;;;;;;;19.43;14.10;;;;;;;9.65;94.27;99923.16;5075867;28;20208;-81
2023/11/21 01:36:35;;;;;;;15.07;11.03;;;;;;;9.96;94.56;99914.63;5074444;28;20208;-83
2023/11/21 01:39:01;;;;;;;17.60;11.67;;;;;;;9.90;94.17;99913.00;5073141;28;20270;-82
2023/11/21 01:41:30;;;;;;;14.93;11.63;;;;;;;9.74;94.86;99915.97;5072711;28;20255;-83
2023/11/21 01:43:58;;;;;;;19.30;12.93;;;;;;;9.77;94.41;99914.19;5074315;28;20232;-83
2023/11/21 01:46:25;;;;;;;20.27;12.40;;;;;;;9.89;94.38;99911.28;5075112;28;20223;-83
2023/11/21 01:48:53;;;;;;;19.53;13.03;;;;;;;9.81;94.38;99923.66;5066682;28;20853;-83
2023/11/21 01:51:19;;;;;;;16.53;13.30;;;;;;;9.53;94.53;99938.22;5073790;28;20216;-83
2023/11/21 01:53:46;;;;;;;15.20;13.00;;;;;;;9.77;95.34;99916.81;5074824;28;20738;-83
2023/11/21 01:56:13;;;;;;;18.07;12.47;;;;;;;9.99;94.74;99910.19;5075539;28;20224;-86
2023/11/21 01:58:41;;;;;;;20.93;11.97;;;;;;;10.12;94.05;99921.16;5075118;28;20197;-83
2023/11/21 02:01:08;;;;;;;19.43;11.53;;;;;;;10.06;93.75;99929.97;5081682;28;20394;-86
2023/11/21 02:03:35;;;;;;;17.57;12.30;;;;;;;10.02;93.28;99945.75;5074170;28;20269;-83
2023/11/21 02:06:01;;;;;;;20.03;12.17;;;;;;;10.19;93.02;99946.19;5075372;28;20193;-83
2023/11/21 02:08:28;;;;;;;18.83;11.80;;;;;;;10.30;92.54;99961.59;5075131;28;20229;-83
2023/11/21 02:10:54;;;;;;;19.30;12.43;;;;;;;10.39;92.27;99970.94;5075027;28;20225;-83
2023/11/21 02:13:20;;;;;;;17.43;12.10;;;;;;;10.41;91.63;99985.66;5074922;28;20231;-84
2023/11/21 02:15:52;;;;;;;14.93;10.50;;;;;;;10.46;91.78;99990.75;5075035;28;20229;-83
2023/11/21 02:18:18;;;;;;;20.43;11.33;;;;;;;10.46;91.35;99993.34;5075075;28;20221;-84
2023/11/21 02:20:46;;;;;;;16.77;11.90;;;;;;;10.27;92.44;99996.41;5074878;28;20225;-83
2023/11/21 02:23:14;;;;;;;14.70;12.07;;;;;;;10.40;92.00;99996.13;5075251;28;20231;-83
2023/11/21 02:25:42;;;;;;;19.50;13.23;;;;;;;10.44;91.51;99998.59;5075594;28;20219;-83
2023/11/21 02:28:12;;;;;;;18.30;12.33;;;;;;;10.35;91.12;100011.91;5075983;28;20219;-83
2023/11/21 02:30:39;;;;;;;17.47;13.93;;;;;;;10.24;91.83;100012.13;5081417;28;20740;-83
2023/11/21 02:33:06;;;;;;;21.20;13.10;;;;;;;10.32;92.21;100001.53;5075687;28;20247;-84
2023/11/21 02:35:32;;;;;;;16.23;11.13;;;;;;;10.45;92.31;99999.50;5075626;28;20225;-83
2023/11/21 02:37:59;;;;;;;18.80;12.37;;;;;;;10.51;91.66;100001.94;5083221;28;20205;-83
2023/11/21 02:40:26;;;;;;;19.87;13.50;;;;;;;10.45;91.36;100020.38;5095174;28;20208;-84
2023/11/21 02:42:53;;;;;;;22.03;13.43;;;;;;;10.51;91.07;100021.06;5093832;28;20193;-83
2023/11/21 02:45:20;;;;;;;19.80;12.63;;;;;;;10.39;90.87;100029.19;5094777;28;20181;-83
2023/11/21 02:47:48;;;;;;;18.97;12.73;;;;;;;10.52;90.73;100033.22;5094626;28;20294;-83
2023/11/21 02:50:15;;;;;;;16.60;12.80;;;;;;;10.41;91.29;100030.00;5087416;28;20311;-84
2023/11/21 02:52:41;;;;;;;14.67;11.63;;;;;;;10.51;91.41;100030.66;5072099;28;20193;-82
2023/11/21 02:55:09;;;;;;;21.77;12.63;;;;;;;10.48;91.22;100023.72;5072099;28;20220;-82
2023/11/21 02:57:36;;;;;;;15.20;12.60;;;;;;;10.57;91.59;100014.81;5072188;28;20223;-83
2023/11/21 03:00:07;;;;;;;18.07;12.73;;;;;;;10.59;91.14;100020.00;5075891;28;20232;-84
2023/11/21 03:02:36;;;;;;;14.83;13.13;;;;;;;10.57;91.12;100030.47;5074268;28;20242;-82
2023/11/21 03:05:04;;;;;;;21.63;13.80;;;;;;;10.20;91.18;100044.38;5071820;28;20203;-82
2023/11/21 03:07:31;;;;;;;26.63;15.60;;;;;;;10.18;92.34;100016.63;5071552;28;20232;-83
2023/11/21 03:09:57;;;;;;;19.57;14.27;;;;;;;10.33;91.85;100013.69;5062313;28;20221;-83
2023/11/21 03:12:24;;;;;;;25.60;14.43;;;;;;;10.39;91.35;100026.59;5072069;28;20212;-83
2023/11/21 03:14:52;;;;;;;33.73;14.37;;;;;;;10.46;91.62;100028.13;5071478;28;20653;-83
2023/11/21 03:17:18;;;;;;;21.30;14.77;;;;;;;10.52;91.52;100030.59;4722514;28;10000448;-83
2023/11/21 03:19:45;;;;;;;17.10;13.20;;;;;;;10.56;91.56;100038.34;5073845;28;20778;-84
2023/11/21 03:22:11;;;;;;;21.70;13.93;;;;;;;10.53;91.22;100040.13;5072804;28;20734;-82
2023/11/21 03:24:38;;;;;;;19.23;15.70;;;;;;;10.36;91.60;100052.75;5072664;28;20208;-81
2023/11/21 03:27:05;;;;;;;21.73;16.17;;;;;;;10.41;91.44;100045.66;5074335;28;20201;-82
2023/11/21 03:29:31;;;;;;;25.43;15.50;;;;;;;10.43;91.55;100054.31;5072730;28;20227;-83
2023/11/21 03:31:59;;;;;;;19.17;14.90;;;;;;;10.45;91.42;100056.91;5081338;28;20200;-82
2023/11/21 03:34:27;;;;;;;25.27;15.07;;;;;;;10.46;91.61;100062.06;5074608;28;20200;-83
2023/11/21 03:36:54;;;;;;;27.70;17.07;;;;;;;10.43;91.66;100062.16;5074735;28;20228;-83
2023/11/21 03:39:22;;;;;;;32.97;17.23;;;;;;;10.33;91.43;100064.13;5072645;28;20740;-83
2023/11/21 03:41:48;;;;;;;19.70;16.00;;;;;;;10.20;92.39;100051.38;5074381;28;20215;-82
2023/11/21 03:44:15;;;;;;;27.47;16.97;;;;;;;10.14;92.72;100060.19;5075706;28;20197;-83
2023/11/21 03:46:42;;;;;;;26.50;17.07;;;;;;;9.97;94.44;100020.59;5074895;28;20616;-82
2023/11/21 03:49:10;;;;;;;28.43;17.40;;;;;;;10.02;94.49;100005.72;5075763;28;20204;-83
2023/11/21 03:51:37;;;;;;;25.60;17.13;;;;;;;10.08;94.74;99993.38;5074138;28;20767;-83
2023/11/21 03:54:04;;;;;;;25.77;17.60;;;;;;;10.21;94.05;100000.91;5075299;28;20200;-83
2023/11/21 03:56:30;;;;;;;21.23;16.20;;;;;;;10.26;93.51;100009.47;5075093;28;20308;-83
2023/11/21 03:58:57;;;;;;;27.70;17.83;;;;;;;9.92;94.22;100021.56;5073870;28;20582;-82
2023/11/21 04:01:23;;;;;;;30.70;18.67;;;;;;;9.74;96.12;99982.91;5074395;28;20228;-83
2023/11/21 04:03:50;;;;;;;36.83;18.63;;;;;;;9.71;97.24;99960.38;5075161;28;20227;-83
2023/11/21 04:06:18;;;;;;;30.47;17.50;;;;;;;9.93;96.57;99952.91;5074558;28;20772;-82
2023/11/21 04:08:45;;;;;;;25.47;16.60;;;;;;;9.79;96.10;99962.81;5074878;28;20675;-82
2023/11/21 04:11:12;;;;;;;26.80;16.93;;;;;;;9.52;97.98;99948.66;5074323;28;20220;-82
2023/11/21 04:13:39;;;;;;;25.97;17.23;;;;;;;9.61;97.96;99937.16;5075869;28;20543;-84
2023/11/21 04:16:07;;;;;;;32.03;17.27;;;;;;;9.81;97.67;99934.97;5078555;28;20256;-83
2023/11/21 04:18:34;;;;;;;28.30;17.70;;;;;;;9.69;97.11;99953.47;5078312;28;20208;-82
2023/11/21 04:21:00;;;;;;;30.47;18.73;;;;;;;9.66;97.90;99951.78;5076751;28;20217;-82
2023/11/21 04:23:30;;;;;;;28.73;16.37;;;;;;;9.85;97.71;99944.41;5078963;28;20231;-82
2023/11/21 04:25:57;;;;;;;33.93;18.77;;;;;;;9.59;97.94;99951.97;5078086;28;20232;-82
2023/11/21 04:28:24;;;;;;;26.47;17.70;;;;;;;9.59;98.46;99944.16;5078482;28;20211;-83
2023/11/21 04:30:50;;;;;;;33.17;18.37;;;;;;;9.69;98.49;99949.13;5077801;28;20819;-83
2023/11/21 04:33:17;;;;;;;27.67;17.80;;;;;;;9.61;98.05;99955.41;5078260;28;20567;-83
2023/11/21 04:35:43;;;;;;;37.63;18.67;;;;;;;9.80;97.93;99955.84;5078389;28;20240;-83
2023/11/21 04:38:10;;;;;;;32.90;17.90;;;;;;;9.69;98.24;99956.06;5077918;28;20205;-81
2023/11/21 04:40:38;;;;;;;29.37;18.43;;;;;;;9.62;98.21;99964.94;5078441;28;20615;-81
2023/11/21 04:43:04;;;;;;;35.93;18.10;;;;;;;9.31;100.00;99945.63;5078254;28;20207;-82
2023/11/21 04:45:31;;;;;;;35.23;19.70;;;;;;;9.13;100.00;99928.63;5078291;28;20228;-83
2023/11/21 04:47:57;;;;;;;32.77;18.27;;;;;;;9.21;100.00;99912.84;5077815;28;20209;-83
2023/11/21 04:50:25;;;;;;;32.43;19.33;;;;;;;9.00;100.00;99901.19;5077111;28;20223;-82
2023/11/21 04:52:52;;;;;;;36.63;20.20;;;;;;;8.97;100.00;99888.22;5076551;28;20204;-82
2023/11/21 04:55:19;;;;;;;34.83;19.20;;;;;;;9.24;100.00;99888.50;5077802;28;20207;-82
2023/11/21 04:57:47;;;;;;;31.67;18.47;;;;;;;9.33;100.00;99891.75;5077938;28;20205;-82
2023/11/21 05:00:15;;;;;;;34.83;19.33;;;;;;;9.32;100.00;99897.84;5079482;28;20223;-83
2023/11/21 05:02:43;;;;;;;31.07;18.07;;;;;;;9.38;100.00;99904.69;5073698;28;20197;-83
2023/11/21 05:05:10;;;;;;;31.40;19.83;;;;;;;9.23;100.00;99916.28;5077944;28;20208;-83
2023/11/21 05:07:37;;;;;;;37.23;20.33;;;;;;;9.31;100.00;99909.16;5076842;28;20640;-83
2023/11/21 05:10:07;;;;;;;29.67;19.17;;;;;;;9.11;100.00;99901.78;5077791;28;20217;-83
2023/11/21 05:12:35;;;;;;;34.10;19.27;;;;;;;9.21;100.00;99902.44;5077531;28;20204;-83
2023/11/21 05:15:07;;;;;;;34.67;19.37;;;;;;;9.34;100.00;99893.47;5073328;28;21411;-84
2023/11/21 05:17:34;;;;;;;36.10;18.40;;;;;;;9.23;100.00;99908.47;5077365;28;20255;-84
2023/11/21 05:20:03;;;;;;;37.33;19.60;;;;;;;9.37;100.00;99902.09;5077785;28;20264;-84
2023/11/21 05:22:30;;;;;;;38.27;18.73;;;;;;;9.46;100.00;99907.97;5077143;28;20208;-83
2023/11/21 05:24:56;;;;;;;35.53;20.40;;;;;;;9.25;100.00;99918.84;5077094;28;20208;-83
2023/11/21 05:27:22;;;;;;;35.40;19.73;;;;;;;9.22;100.00;99925.00;5078108;28;20200;-83
2023/11/21 05:29:49;;;;;;;40.73;21.23;;;;;;;8.90;100.00;99904.84;5077845;28;20247;-84
2023/11/21 05:32:17;;;;;;;41.73;20.73;;;;;;;9.21;100.00;99888.56;5076987;28;20224;-81
2023/11/21 05:34:43;;;;;;;43.47;20.00;;;;;;;9.40;100.00;99891.63;5078638;28;20201;-84
2023/11/21 05:37:10;;;;;;;47.10;22.20;;;;;;;9.43;100.00;99902.81;5076951;28;20221;-82
2023/11/21 05:39:36;;;;;;;44.27;20.93;;;;;;;9.38;100.00;99917.69;5077124;28;20205;-83
2023/11/21 05:42:03;;;;;;;42.50;20.87;;;;;;;9.04;100.00;99920.16;5076996;28;20208;-84
2023/11/21 05:44:30;;;;;;;42.63;21.40;;;;;;;8.84;100.00;99876.34;5077421;28;20577;-83
2023/11/21 05:46:58;;;;;;;54.70;21.77;;;;;;;9.06;100.00;99861.13;5078196;28;20216;-84
2023/11/21 05:49:26;;;;;;;46.17;22.63;;;;;;;9.31;100.00;99872.69;5077731;28;20211;-83
2023/11/21 05:51:54;;;;;;;48.40;22.77;;;;;;;9.02;100.00;99875.09;5076395;28;20233;-84
2023/11/21 05:54:21;;;;;;;51.10;24.37;;;;;;;8.94;100.00;99851.84;5079553;28;20232;-84
2023/11/21 05:56:47;;;;;;;56.43;22.60;;;;;;;9.03;100.00;99853.38;5076998;28;20225;-84
2023/11/21 05:59:14;;;;;;;54.67;23.80;;;;;;;8.75;100.00;99846.16;5078555;28;20201;-83
2023/11/21 06:01:41;;;;;;;58.47;24.60;;;;;;;8.94;100.00;99838.84;5078205;28;20221;-83
2023/11/21 06:04:08;;;;;;;67.03;24.40;;;;;;;9.07;100.00;99842.00;5077868;28;20699;-83
2023/11/21 06:06:35;;;;;;;68.70;26.13;;;;;;;9.01;100.00;99856.00;5075771;28;20212;-84
2023/11/21 06:09:02;;;;;;;66.07;26.43;;;;;;;8.86;100.00;99861.53;5077841;28;20212;-83
2023/11/21 06:11:29;;;;;;;59.07;24.23;;;;;;;8.78;100.00;99840.91;5077083;28;20225;-83
2023/11/21 06:13:55;;;;;;;61.73;24.77;;;;;;;8.65;100.00;99837.69;5076020;28;20223;-83
2023/11/21 06:16:22;;;;;;;64.27;24.57;;;;;;;8.82;100.00;99824.34;5075385;28;20225;-83
2023/11/21 06:18:48;;;;;;;63.17;23.50;;;;;;;8.72;100.00;99833.22;5079064;28;20213;-83
2023/11/21 06:21:16;;;;;;;64.20;25.20;;;;;;;8.70;100.00;99841.06;5074059;28;20229;-83
2023/11/21 06:23:44;;;;;;;67.40;24.73;;;;;;;8.74;100.00;99845.31;5073696;28;20200;-83
2023/11/21 06:26:10;;;;;;;68.70;24.80;;;;;;;8.72;100.00;99841.00;5074637;28;20205;-83
2023/11/21 06:28:37;;;;;;;70.63;26.27;;;;;;;8.93;100.00;99842.31;5074719;28;20283;-83
2023/11/21 06:31:05;;;;;;;66.73;25.70;;;;;;;9.14;100.00;99854.00;5073975;28;20233;-83
2023/11/21 06:33:31;;;;;;;72.33;26.27;;;;;;;9.00;100.00;99882.94;5075218;28;20207;-83
2023/11/21 06:35:58;;;;;;;55.53;24.03;;;;;;;9.05;100.00;99881.09;5074032;28;20624;-82
2023/11/21 06:38:24;;;;;;;59.47;24.63;;;;;;;9.11;100.00;99891.38;5075569;28;20205;-83
2023/11/21 06:40:52;;;;;;;63.17;23.63;;;;;;;8.96;100.00;99894.31;5074518;28;20702;-83
2023/11/21 06:43:18;;;;;;;60.60;22.93;;;;;;;8.65;100.00;99883.69;5075612;28;20208;-83
2023/11/21 06:45:45;;;;;;;58.50;23.53;;;;;;;8.89;100.00;99884.91;5074911;28;20196;-83
2023/11/21 06:48:11;;;;;;;55.03;23.67;;;;;;;9.00;100.00;99892.47;5077603;28;20211;-83
2023/11/21 06:50:38;;;;;;;48.70;21.83;;;;;;;9.28;100.00;99903.19;5073295;28;20228;-83
2023/11/21 06:53:06;;;;;;;52.43;22.60;;;;;;;9.26;100.00;99920.59;5074120;28;20205;-81
2023/11/21 06:55:33;;;;;;;55.83;22.33;;;;;;;9.07;100.00;99943.53;5074500;28;20207;-83
2023/11/21 06:58:01;;;;;;;48.70;22.87;;;;;;;9.01;100.00;99948.88;5073418;28;20229;-82
2023/11/21 07:00:27;;;;;;;54.53;22.90;;;;;;;8.94;100.00;99948.16;5073936;28;20217;-83
2023/11/21 07:02:54;;;;;;;56.23;21.90;;;;;;;8.87;100.00;99941.34;5074548;28;20611;-83
2023/11/21 07:05:21;;;;;;;63.80;22.97;;;;;;;8.67;100.00;99932.19;5074548;28;20208;-82
2023/11/21 07:07:48;;;;;;;58.90;23.03;;;;;;;8.82;100.00;99918.03;5073889;28;20667;-82
2023/11/21 07:10:15;;;;;;;57.97;23.30;;;;;;;8.68;100.00;99920.91;5074945;28;20228;-83
2023/11/21 07:12:41;;;;;;;48.87;21.90;;;;;;;8.55;100.00;99911.63;5074157;28;20205;-84
2023/11/21 07:15:10;;;;;;;55.47;22.80;;;;;;;8.59;100.00;99902.88;5075970;28;20257;-83
2023/11/21 07:17:37;;;;;;;51.70;22.03;;;;;;;8.67;100.00;99900.97;5075845;28;20231;-83
2023/11/21 07:20:04;;;;;;;69.30;24.33;;;;;;;8.70;100.00;99910.44;5074844;28;20224;-83
2023/11/21 07:22:30;;;;;;;91.37;23.90;;;;;;;8.50;100.00;99911.72;5075323;28;20233;-83
2023/11/21 07:24:57;;;;;;;62.60;23.80;;;;;;;8.84;100.00;99911.03;5075562;28;20209;-82
2023/11/21 07:27:24;;;;;;;64.47;24.17;;;;;;;9.03;100.00;99926.28;5076165;28;20223;-84
2023/11/21 07:29:50;;;;;;;59.20;23.97;;;;;;;9.24;100.00;99930.19;5075963;28;20255;-85
2023/11/21 07:32:18;;;;;;;41.63;21.00;;;;;;;9.45;100.00;99947.06;5074892;28;20200;-81
2023/11/21 07:34:45;;;;;;;29.50;15.97;;;;;;;9.45;100.00;99984.38;5074560;28;20201;-83
2023/11/21 07:37:12;;;;;;;11.83;8.80;;;;;;;9.48;100.00;100027.78;5074285;28;20221;-82
2023/11/21 07:39:41;;;;;;;5.40;4.90;;;;;;;9.58;100.00;100046.69;5074988;28;20214;-83
2023/11/21 07:42:09;;;;;;;4.50;4.10;;;;;;;9.59;100.00;100088.31;5075415;28;20235;-84
2023/11/21 07:44:35;;;;;;;3.93;3.53;;;;;;;9.63;100.00;100138.63;5075446;28;20230;-84
2023/11/21 07:47:01;;;;;;;3.73;3.43;;;;;;;9.63;100.00;100165.56;5075990;28;20205;-82
2023/11/21 07:49:29;;;;;;;4.27;3.87;;;;;;;9.62;100.00;100186.44;5085348;28;20204;-84
2023/11/21 07:51:56;;;;;;;4.57;4.27;;;;;;;9.58;100.00;100216.06;5078903;28;20212;-83
2023/11/21 07:54:22;;;;;;;4.13;3.73;;;;;;;9.62;99.71;100236.81;5080171;28;20204;-84
2023/11/21 07:56:48;;;;;;;4.67;4.27;;;;;;;9.61;99.66;100255.91;5079414;28;20228;-84
2023/11/21 07:59:15;;;;;;;4.17;3.73;;;;;;;9.65;99.02;100275.84;5078742;28;20740;-82
2023/11/21 08:01:43;;;;;;;4.00;3.70;;;;;;;9.67;98.95;100283.63;5078843;28;20295;-82
2023/11/21 08:04:09;;;;;;;4.23;3.93;;;;;;;9.67;98.60;100292.31;5078831;28;20258;-82
2023/11/21 08:06:37;;;;;;;4.87;4.40;;;;;;;9.72;98.06;100305.25;5077208;28;20193;-80
2023/11/21 08:09:04;;;;;;;4.63;4.23;;;;;;;9.77;97.60;100320.81;5078499;28;20205;-82
2023/11/21 08:11:32;;;;;;;4.53;4.23;;;;;;;9.74;97.17;100345.19;5078019;28;20224;-84
2023/11/21 08:13:59;;;;;;;4.97;4.47;;;;;;;9.76;96.71;100353.00;5080904;28;20239;-85
2023/11/21 08:16:25;;;;;;;4.33;4.00;;;;;;;9.73;96.98;100359.09;5081367;28;20263;-84
2023/11/21 08:18:52;;;;;;;4.97;4.57;;;;;;;9.68;96.88;100366.16;5090582;28;20209;-83
2023/11/21 08:21:18;;;;;;;4.67;4.23;;;;;;;9.75;96.44;100372.97;5080573;28;20228;-82
2023/11/21 08:23:47;;;;;;;6.37;5.77;;;;;;;9.72;96.08;100384.31;5081952;28;20200;-83
2023/11/21 08:26:13;;;;;;;6.00;5.40;;;;;;;9.71;95.84;100390.44;5082254;28;20274;-83
2023/11/21 08:28:40;;;;;;;5.20;4.80;;;;;;;9.69;95.70;100406.94;5082930;28;20205;-84
2023/11/21 08:31:09;;;;;;;5.67;5.10;;;;;;;9.65;95.66;100416.59;5082670;28;20335;-82
2023/11/21 08:33:36;;;;;;;5.17;4.77;;;;;;;9.61;95.94;100419.25;5081745;28;20203;-82
2023/11/21 08:36:08;;;;;;;5.63;5.13;;;;;;;9.59;95.60;100415.81;5081306;28;20678;-82
2023/11/21 08:38:35;;;;;;;5.53;5.03;;;;;;;9.56;95.49;100436.72;5081083;28;20699;-83
2023/11/21 08:41:03;;;;;;;5.13;4.73;;;;;;;9.54;95.77;100429.75;5082194;28;20225;-82
2023/11/21 08:43:30;;;;;;;6.07;5.57;;;;;;;9.49;95.93;100429.00;5082897;28;20205;-83
2023/11/21 08:45:56;;;;;;;5.77;5.27;;;;;;;9.47;96.55;100419.44;5084691;28;20268;-85
2023/11/21 08:48:23;;;;;;;6.63;6.13;;;;;;;9.51;96.48;100415.91;5091878;28;20200;-83
2023/11/21 08:50:50;;;;;;;10.10;6.20;;;;;;;9.55;95.99;100420.19;5082676;28;20221;-83
2023/11/21 08:53:19;;;;;;;6.37;5.77;;;;;;;9.52;96.29;100422.88;5080217;28;20239;-85
2023/11/21 08:55:45;;;;;;;8.40;7.70;;;;;;;9.44;95.97;100422.13;5079757;28;20197;-85
2023/11/21 08:58:13;;;;;;;9.67;8.67;;;;;;;9.45;95.90;100421.22;5080382;28;20228;-82
2023/11/21 09:00:41;;;;;;;10.30;9.40;;;;;;;9.47;95.56;100427.28;5080635;28;20225;-83
2023/11/21 09:03:08;;;;;;;11.17;9.97;;;;;;;9.46;94.49;100443.81;5081328;28;20208;-84
2023/11/21 09:05:35;;;;;;;10.57;9.67;;;;;;;9.41;94.37;100454.25;5079692;28;20208;-82
2023/11/21 09:08:01;;;;;;;11.47;10.30;;;;;;;9.41;94.49;100461.22;5076987;28;20219;-82
2023/11/21 09:10:28;;;;;;;10.67;9.57;;;;;;;9.32;94.69;100476.09;5078569;28;20221;-84
2023/11/21 09:12:54;;;;;;;10.30;9.40;;;;;;;9.35;94.79;100472.59;5079851;28;20208;-84
2023/11/21 09:15:22;;;;;;;10.83;9.73;;;;;;;9.39;94.68;100468.22;5080494;28;20208;-84
2023/11/21 09:17:55;;;;;;;10.40;9.37;;;;;;;9.37;94.84;100473.44;5087465;28;20232;-84
2023/11/21 09:20:22;;;;;;;10.33;9.33;;;;;;;9.34;94.71;100479.56;5080988;28;20228;-82
2023/11/21 09:22:49;;;;;;;9.83;8.93;;;;;;;9.29;94.94;100485.69;5079321;28;20631;-84
2023/11/21 09:25:16;;;;;;;10.83;9.73;;;;;;;9.31;94.84;100487.41;5079343;28;20235;-83
2023/11/21 09:27:42;;;;;;;11.30;9.37;;;;;;;9.28;94.75;100497.88;5077779;28;20250;-83
2023/11/21 09:30:10;;;;;;;10.47;9.57;;;;;;;9.26;94.19;100507.44;5077847;28;20738;-83
2023/11/21 09:32:38;;;;;;;10.73;9.73;;;;;;;9.23;95.06;100504.00;5080457;28;20209;-83
2023/11/21 09:35:07;;;;;;;11.20;10.20;;;;;;;9.27;94.85;100509.16;5078756;28;20212;-83
2023/11/21 09:37:35;;;;;;;10.90;9.80;;;;;;;9.35;94.13;100527.28;5078458;28;20225;-84
2023/11/21 09:40:02;;;;;;;11.80;10.50;;;;;;;9.30;93.06;100548.19;5078834;28;20221;-83
2023/11/21 09:42:38;;;;;;;11.10;10.00;;;;;;;9.31;93.22;100559.47;5079149;28;20200;-84
2023/11/21 09:45:15;;;;;;;11.23;10.13;;;;;;;9.39;92.97;100564.59;5078326;28;20299;-79
2023/11/21 09:47:44;;;;;;;13.63;10.27;;;;;;;9.43;92.16;100580.16;5083357;28;20223;-82
2023/11/21 09:50:12;;;;;;;9.97;9.07;;;;;;;9.50;91.10;100605.28;5080001;28;20248;-82
2023/11/21 09:52:47;;;;;;;10.93;9.97;;;;;;;9.52;90.25;100636.53;5076981;28;20236;-83
2023/11/21 09:58:24;;;;;;;9.87;8.97;;;;;;;9.57;89.56;100660.78;5015171;28;20222;-79
2023/11/21 10:00:56;;;;;;;10.10;9.10;;;;;;;9.63;89.79;100667.66;5062075;28;20227;-82
2023/11/21 10:03:24;;;;;;;10.60;9.70;;;;;;;9.67;89.53;100680.69;5078252;28;20693;-82
2023/11/21 10:05:52;;;;;;;9.57;8.77;;;;;;;9.38;90.52;100673.16;5077473;28;20209;-83
2023/11/21 10:08:23;;;;;;;9.90;8.83;;;;;;;9.33;90.72;100674.94;5078382;28;20201;-82
2023/11/21 10:10:53;;;;;;;8.87;8.07;;;;;;;9.28;90.93;100668.94;5077135;28;20224;-82
2023/11/21 10:13:20;;;;;;;9.60;8.67;;;;;;;9.56;89.35;100669.50;5077968;28;20212;-83
2023/11/21 10:15:50;;;;;;;8.90;8.13;;;;;;;9.67;88.86;100696.31;5076600;28;20209;-82
2023/11/21 10:18:18;;;;;;;10.33;9.53;;;;;;;9.76;87.46;100725.75;5085778;28;20228;-82
2023/11/21 10:20:51;;;;;;;9.03;8.30;;;;;;;9.73;87.52;100737.06;5077063;28;20244;-81
2023/11/21 10:23:22;;;;;;;9.03;8.20;;;;;;;9.79;87.21;100739.63;5076111;28;20295;-81
2023/11/21 10:25:54;;;;;;;8.17;7.47;;;;;;;9.79;85.77;100776.13;5076373;28;20201;-81
2023/11/21 10:28:21;;;;;;;9.57;6.87;;;;;;;9.80;84.32;100813.50;5076613;28;20300;-80
2023/11/21 10:30:48;;;;;;;7.23;6.63;;;;;;;9.81;84.75;100833.44;5077639;28;20228;-81
2023/11/21 10:33:14;;;;;;;7.60;6.90;;;;;;;9.81;84.13;100836.06;5085949;28;20201;-81
2023/11/21 10:35:46;;;;;;;7.20;6.60;;;;;;;9.79;83.17;100861.28;5089534;28;20201;-81
2023/11/21 10:38:14;;;;;;;7.27;6.57;;;;;;;9.77;82.35;100902.13;5089783;28;20219;-80
2023/11/21 10:40:42;;;;;;;7.83;7.13;;;;;;;9.69;83.38;100908.28;5078411;28;20244;-80
2023/11/21 10:43:10;;;;;;;8.10;7.40;;;;;;;9.67;83.18;100910.06;5076256;28;20255;-83
2023/11/21 10:45:37;;;;;;;7.83;7.00;;;;;;;9.66;83.15;100902.25;5076579;28;20220;-80
2023/11/21 10:48:07;;;;;;;7.83;7.23;;;;;;;9.64;82.73;100928.31;5068276;28;20212;-81
2023/11/21 10:50:34;;;;;;;7.47;6.87;;;;;;;9.62;82.87;100916.16;5075348;28;20289;-83
2023/11/21 10:53:03;;;;;;;7.50;6.80;;;;;;;9.61;83.52;100915.28;5075241;28;20215;-81
2023/11/21 10:55:32;;;;;;;7.03;6.33;;;;;;;9.65;84.43;100900.50;5075534;28;20698;-82
2023/11/21 10:58:01;;;;;;;8.47;6.97;;;;;;;9.62;83.21;100911.81;5075473;28;20230;-81
2023/11/21 11:00:28;;;;;;;7.77;7.10;;;;;;;9.61;83.08;100923.09;5074082;28;20232;-80
2023/11/21 11:02:56;;;;;;;7.00;6.30;;;;;;;9.61;82.59;100930.06;5070257;28;20208;-81
2023/11/21 11:05:25;;;;;;;7.10;6.40;;;;;;;9.64;82.77;100937.88;5076418;28;20234;-82
2023/11/21 11:07:59;;;;;;;6.30;5.80;;;;;;;9.62;82.61;100948.31;5074893;28;20201;-81
2023/11/21 11:10:27;;;;;;;7.60;6.70;;;;;;;9.59;81.17;100979.59;5073929;28;20228;-81
2023/11/21 11:12:55;;;;;;;7.23;6.73;;;;;;;9.62;81.66;100986.53;5074746;28;20208;-80
2023/11/21 11:15:22;;;;;;;6.27;5.77;;;;;;;9.63;81.64;100986.53;5072247;28;20204;-81
2023/11/21 11:17:49;;;;;;;7.00;6.43;;;;;;;9.58;81.80;100990.91;5073326;28;20239;-80
2023/11/21 11:20:35;;;;;;;7.10;6.60;;;;;;;9.53;81.54;101003.09;4923717;28;10000834;-81
2023/11/21 11:23:18;;;;;;;7.30;6.80;;;;;;;9.55;82.41;100985.69;5071102;28;20858;-81
2023/11/21 11:26:06;;;;;;;7.63;6.93;;;;;;;9.53;80.92;101008.28;5071501;28;20212;-81